Time;durP1;ratioP1;P1;durP2;ratioP2;P2;SDS_P1;SDS_P2;PMS_P1;PMS_P2;Temp;Humidity;BMP_temperature;BMP_pressure;BME280_temperature;BME280_humidity;BME280_pressure;Samples;Min_cycle;Max_cycle;Signal;HPM_P1;HPM_P2
2022/07/01 00:00:52;;;;;;;10.25;6.97;;;;;;;16.63;80.02;99792.16;6241855;23;20213;-83
2022/07/01 00:03:17;;;;;;;9.37;5.97;;;;;;;16.55;80.29;99788.19;6242104;23;20554;-77
2022/07/01 00:05:43;;;;;;;12.13;7.43;;;;;;;16.41;80.10;99780.75;6240138;23;20320;-77
2022/07/01 00:08:08;;;;;;;12.50;6.60;;;;;;;16.53;79.56;99779.44;6241259;23;20214;-78
2022/07/01 00:10:35;;;;;;;10.20;5.30;;;;;;;16.40;79.10;99768.09;6240939;23;20387;-78
2022/07/01 00:13:01;;;;;;;8.68;4.40;;;;;;;16.41;79.03;99769.75;6241479;23;20039;-78
2022/07/01 00:15:26;;;;;;;8.68;4.72;;;;;;;16.59;78.67;99760.88;6240409;23;20008;-78
2022/07/01 00:17:52;;;;;;;9.95;5.28;;;;;;;16.39;78.80;99757.41;6240683;23;20004;-78
2022/07/01 00:20:18;;;;;;;12.40;5.07;;;;;;;16.26;79.35;99759.00;6242355;23;20295;-87
2022/07/01 00:22:43;;;;;;;9.05;4.88;;;;;;;16.28;78.92;99759.53;6242595;23;20222;-87
2022/07/01 00:25:09;;;;;;;8.05;4.88;;;;;;;16.19;79.74;99756.69;6241111;23;20013;-77
2022/07/01 00:27:39;;;;;;;8.93;5.07;;;;;;;16.40;79.24;99757.09;6241342;23;20753;-78
2022/07/01 00:30:05;;;;;;;10.45;5.13;;;;;;;16.32;79.34;99763.31;6242336;23;20055;-87
2022/07/01 00:32:30;;;;;;;11.50;5.78;;;;;;;16.53;79.15;99757.41;6242213;23;20000;-87
2022/07/01 00:34:56;;;;;;;11.70;6.25;;;;;;;16.08;79.26;99758.78;6241253;23;20004;-79
2022/07/01 00:37:21;;;;;;;12.30;6.33;;;;;;;16.20;79.21;99767.38;6240640;23;20336;-80
2022/07/01 00:39:46;;;;;;;9.97;6.13;;;;;;;16.26;79.47;99750.75;6240555;23;20228;-77
2022/07/01 00:42:11;;;;;;;12.47;7.00;;;;;;;16.25;79.42;99757.41;6241357;23;20214;-76
2022/07/01 00:44:37;;;;;;;13.00;7.50;;;;;;;16.40;78.16;99754.34;6240465;23;20225;-77
2022/07/01 00:47:07;;;;;;;14.02;8.73;;;;;;;16.20;79.16;99758.31;6240976;23;20384;-77
2022/07/01 00:49:32;;;;;;;14.80;6.97;;;;;;;16.22;78.79;99762.38;6241673;23;20018;-82
2022/07/01 00:51:58;;;;;;;17.85;6.93;;;;;;;16.29;79.49;99763.94;6240296;23;20040;-82
2022/07/01 00:54:23;;;;;;;12.07;7.03;;;;;;;16.19;79.14;99762.97;6240493;23;20011;-77
2022/07/01 00:56:49;;;;;;;12.93;7.90;;;;;;;16.28;79.12;99763.09;6239413;23;20087;-78
2022/07/01 00:59:15;;;;;;;19.05;8.48;;;;;;;16.34;79.33;99775.66;6240695;23;20420;-83
2022/07/01 01:01:41;;;;;;;16.67;8.63;;;;;;;16.35;78.73;99779.22;6241291;23;20031;-77
2022/07/01 01:04:06;;;;;;;13.93;7.85;;;;;;;16.33;79.01;99787.75;6240202;23;20090;-77
2022/07/01 01:06:33;;;;;;;16.45;8.88;;;;;;;16.07;79.03;99793.72;6239206;23;20034;-77
2022/07/01 01:08:58;;;;;;;18.52;9.00;;;;;;;16.03;79.66;99797.38;6239912;23;20008;-77
2022/07/01 01:11:23;;;;;;;14.27;8.82;;;;;;;16.40;78.54;99775.53;6240296;23;20008;-78
2022/07/01 01:13:49;;;;;;;15.32;8.82;;;;;;;16.13;78.69;99799.13;6239878;23;20004;-77
2022/07/01 01:16:21;;;;;;;15.15;8.25;;;;;;;15.94;79.03;99803.53;6239895;23;20384;-82
2022/07/01 01:18:47;;;;;;;17.75;10.48;;;;;;;15.86;80.04;99801.47;6241071;23;20015;-82
2022/07/01 01:21:12;;;;;;;19.00;10.18;;;;;;;15.65;80.76;99796.28;6240738;23;20004;-83
2022/07/01 01:23:38;;;;;;;17.85;11.23;;;;;;;15.81;79.24;99804.28;6240722;23;20289;-83
2022/07/01 01:26:03;;;;;;;16.60;9.07;;;;;;;15.64;80.77;99800.16;6240083;23;20026;-79
2022/07/01 01:28:29;;;;;;;15.55;8.80;;;;;;;15.60;80.19;99802.66;6240157;23;20012;-81
2022/07/01 01:30:54;;;;;;;16.63;9.63;;;;;;;15.86;78.77;99823.47;6239695;23;20008;-77
2022/07/01 01:33:19;;;;;;;16.63;10.20;;;;;;;15.64;80.01;99819.41;6239442;23;20324;-77
2022/07/01 01:35:45;;;;;;;18.65;9.43;;;;;;;15.76;80.13;99829.94;6239507;23;20320;-79
2022/07/01 01:38:10;;;;;;;16.88;9.05;;;;;;;15.93;78.14;99834.88;6239700;23;20438;-81
2022/07/01 01:40:35;;;;;;;13.25;7.55;;;;;;;15.73;79.92;99836.00;6240191;23;20008;-79
2022/07/01 01:43:01;;;;;;;14.63;7.75;;;;;;;15.86;79.23;99840.75;6239898;23;20482;-79
2022/07/01 01:45:26;;;;;;;12.52;8.02;;;;;;;15.63;79.54;99831.50;6239805;23;19996;-82
2022/07/01 01:47:51;;;;;;;14.93;8.43;;;;;;;15.83;79.41;99824.88;6241296;23;20436;-83
2022/07/01 01:50:17;;;;;;;11.40;6.13;;;;;;;15.76;78.82;99822.47;6240751;23;20015;-83
2022/07/01 01:52:43;;;;;;;10.50;5.90;;;;;;;15.57;78.99;99821.69;6241320;23;20249;-83
2022/07/01 01:55:09;;;;;;;13.88;6.78;;;;;;;15.95;78.68;99820.81;6240537;23;20016;-82
2022/07/01 01:57:34;;;;;;;9.07;4.75;;;;;;;15.91;77.96;99820.63;6241387;23;20472;-83
2022/07/01 02:00:00;;;;;;;9.27;5.22;;;;;;;15.87;77.57;99825.06;6241236;23;20011;-82
2022/07/01 02:02:25;;;;;;;21.75;4.78;;;;;;;15.91;78.21;99828.84;6240334;23;20097;-80
2022/07/01 02:04:50;;;;;;;8.05;4.85;;;;;;;15.87;77.88;99836.91;6239587;23;20000;-81
2022/07/01 02:07:16;;;;;;;9.20;5.68;;;;;;;15.82;78.28;99838.91;6241060;23;20268;-82
2022/07/01 02:09:41;;;;;;;9.95;5.38;;;;;;;15.98;78.16;99842.25;6240954;23;20035;-82
2022/07/01 02:12:06;;;;;;;9.48;4.30;;;;;;;15.76;78.61;99852.72;6242161;23;20324;-76
2022/07/01 02:14:32;;;;;;;10.00;4.25;;;;;;;15.62;78.79;99857.34;6214735;23;20452;-76
2022/07/01 02:16:57;;;;;;;9.52;5.32;;;;;;;15.64;78.91;99855.91;6242235;23;19996;-83
2022/07/01 02:19:22;;;;;;;11.63;6.27;;;;;;;15.45;79.38;99857.84;6242626;23;20000;-83
2022/07/01 02:21:50;;;;;;;8.50;4.30;;;;;;;15.46;79.67;99857.53;6241878;23;20596;-76
2022/07/01 02:24:16;;;;;;;10.65;6.10;;;;;;;15.50;79.40;99858.59;6241294;23;20000;-76
2022/07/01 02:26:42;;;;;;;9.88;5.03;;;;;;;15.65;79.13;99862.22;6241684;23;20079;-78
2022/07/01 02:29:07;;;;;;;12.05;5.70;;;;;;;15.76;78.80;99869.22;6242449;23;20087;-77
2022/07/01 02:31:32;;;;;;;10.20;3.95;;;;;;;15.88;78.44;99855.00;6241406;23;20008;-76
2022/07/01 02:33:58;;;;;;;6.68;3.90;;;;;;;15.81;78.21;99846.34;6241025;23;20027;-76
2022/07/01 02:36:23;;;;;;;10.73;4.60;;;;;;;15.82;77.42;99856.22;6241138;23;20008;-79
2022/07/01 02:38:48;;;;;;;12.18;4.43;;;;;;;15.65;77.78;99856.75;6241609;23;20533;-80
2022/07/01 02:41:13;;;;;;;7.50;4.07;;;;;;;15.35;78.50;99856.06;6241403;23;20019;-77
2022/07/01 02:43:39;;;;;;;7.53;3.47;;;;;;;15.42;78.74;99872.97;6242730;23;20291;-85
2022/07/01 02:46:04;;;;;;;9.15;3.55;;;;;;;15.32;78.44;99892.31;6215629;23;20225;-85
2022/07/01 02:48:29;;;;;;;6.97;3.58;;;;;;;15.26;78.37;99886.09;6242722;23;20375;-79
2022/07/01 02:50:55;;;;;;;7.47;3.03;;;;;;;15.28;78.37;99881.94;6241211;23;20337;-78
2022/07/01 02:53:21;;;;;;;7.32;3.75;;;;;;;15.14;78.49;99881.00;6241253;23;20004;-82
2022/07/01 02:55:46;;;;;;;6.72;3.42;;;;;;;15.20;78.80;99890.00;6242377;23;20011;-82
2022/07/01 02:58:11;;;;;;;8.02;3.53;;;;;;;15.38;78.71;99896.66;6242287;23;20004;-80
2022/07/01 03:00:37;;;;;;;7.05;3.47;;;;;;;15.40;78.60;99895.25;6241120;23;20281;-79
2022/07/01 03:03:03;;;;;;;9.43;3.85;;;;;;;15.58;77.44;99894.78;6241787;23;20008;-82
2022/07/01 03:05:28;;;;;;;9.23;4.53;;;;;;;15.57;77.67;99901.38;6241920;23;19996;-82
2022/07/01 03:07:54;;;;;;;11.32;4.95;;;;;;;15.34;78.55;99914.81;6242852;23;20101;-80
2022/07/01 03:10:19;;;;;;;8.45;3.58;;;;;;;15.40;78.04;99903.50;6240658;23;20089;-77
2022/07/01 03:12:44;;;;;;;9.05;3.45;;;;;;;15.37;78.64;99920.56;6241446;23;20035;-78
2022/07/01 03:15:12;;;;;;;8.40;4.47;;;;;;;15.16;78.67;99928.22;6240718;23;20012;-76
2022/07/01 03:17:40;;;;;;;9.57;4.97;;;;;;;15.32;78.43;99931.59;6240630;23;20004;-76
2022/07/01 03:20:08;;;;;;;9.45;4.13;;;;;;;15.23;78.79;99934.19;6240839;23;20011;-79
2022/07/01 03:22:34;;;;;;;9.75;4.15;;;;;;;15.15;78.89;99932.88;6240669;23;20440;-79
2022/07/01 03:25:00;;;;;;;10.23;4.78;;;;;;;15.26;78.28;99939.09;6241994;23;20019;-84
2022/07/01 03:27:26;;;;;;;10.85;5.13;;;;;;;15.04;79.56;99937.69;6242112;23;20278;-83
2022/07/01 03:29:51;;;;;;;7.28;4.50;;;;;;;15.22;79.26;99946.28;6240558;23;20595;-77
2022/07/01 03:32:17;;;;;;;10.40;5.10;;;;;;;15.29;78.29;99943.19;6240979;23;20030;-77
2022/07/01 03:34:48;;;;;;;12.60;5.75;;;;;;;15.48;77.84;99945.97;6240663;23;20004;-78
2022/07/01 03:37:14;;;;;;;10.95;6.10;;;;;;;15.35;77.92;99943.94;6239892;23;20004;-78
2022/07/01 03:39:40;;;;;;;13.10;5.60;;;;;;;15.18;78.73;99939.72;6240487;23;20030;-79
2022/07/01 03:42:08;;;;;;;10.65;5.20;;;;;;;15.33;78.48;99944.25;6240489;23;20019;-79
2022/07/01 03:44:34;;;;;;;10.50;5.75;;;;;;;15.14;78.75;99945.00;6240572;23;20008;-79
2022/07/01 03:47:00;;;;;;;10.23;5.85;;;;;;;15.15;79.18;99952.09;6240313;23;20083;-78
2022/07/01 03:49:25;;;;;;;10.88;5.55;;;;;;;15.15;79.24;99943.88;6240728;23;20083;-75
2022/07/01 03:51:51;;;;;;;13.23;6.50;;;;;;;15.24;78.22;99952.28;6239496;23;20007;-76
2022/07/01 03:57:05;;;;;;;;;;;;;;;15.27;78.88;99935.25;6240605;23;20062;-79
2022/07/01 03:59:30;;;;;;;;;;;;;;;15.20;79.19;99934.75;6240677;23;19908;-76
2022/07/01 04:01:56;;;;;;;;;;;;;;;15.05;79.15;99928.31;6240040;23;19961;-76
2022/07/01 04:04:22;;;;;;;;;;;;;;;15.33;78.36;99932.44;6240017;23;19907;-78
2022/07/01 04:06:48;;;;;;;;;;;;;;;15.58;77.66;99930.50;6239898;23;19908;-78
2022/07/01 04:09:14;;;;;;;;;;;;;;;15.55;77.31;99931.06;6239976;23;19922;-77
2022/07/01 04:11:41;;;;;;;;;;;;;;;15.52;77.08;99930.53;6239834;23;20289;-77
2022/07/01 04:14:06;;;;;;;;;;;;;;;15.54;77.95;99941.22;6239977;23;20389;-78
2022/07/01 04:16:32;;;;;;;;;;;;;;;15.61;77.09;99918.91;6239845;23;19907;-79
2022/07/01 04:18:57;;;;;;;;;;;;;;;15.30;77.77;99917.34;6241049;23;19907;-77
2022/07/01 04:24:07;;;;;;;;;;;;;;;15.61;77.32;99897.75;6240397;23;19937;-78
2022/07/01 04:26:32;;;;;;;;;;;;;;;15.61;77.79;99899.66;6240718;23;19915;-77
2022/07/01 04:28:57;;;;;;;;;;;;;;;15.50;77.86;99899.78;6240326;23;19911;-76
2022/07/01 04:31:23;;;;;;;;;;;;;;;15.80;77.07;99918.09;6240223;23;20255;-76
2022/07/01 04:33:48;;;;;;;;;;;;;;;15.66;78.05;99923.50;6240709;23;19911;-78
2022/07/01 04:36:14;;;;;;;;;;;;;;;15.61;78.08;99927.97;6239834;23;19915;-78
2022/07/01 04:38:39;;;;;;;;;;;;;;;15.52;78.07;99922.28;6240918;23;19946;-78
2022/07/01 04:43:47;;;;;;;;;;;;;;;15.54;78.29;99932.97;6241269;23;20434;-84
2022/07/01 04:46:13;;;;;;;;;;;;;;;15.63;77.64;99938.66;6242522;23;19915;-84
2022/07/01 04:48:38;;;;;;;;;;;;;;;15.55;78.02;99922.81;6241807;23;19912;-79
2022/07/01 04:51:03;;;;;;;;;;;;;;;15.61;77.72;99918.91;6240287;23;20390;-78
2022/07/01 04:53:28;;;;;;;;;;;;;;;15.52;78.44;99918.72;6240649;23;19942;-78
2022/07/01 04:55:53;;;;;;;;;;;;;;;15.65;78.76;99917.19;6240412;23;19921;-78
2022/07/01 04:58:18;;;;;;;;;;;;;;;15.60;77.66;99920.81;6240309;23;19908;-78
2022/07/01 05:00:44;;;;;;;;;;;;;;;15.69;77.76;99934.72;6240617;23;19938;-78
2022/07/01 05:03:09;;;;;;;;;;;;;;;15.86;77.74;99934.22;6240409;23;19907;-85
2022/07/01 05:05:34;;;;;;;;;;;;;;;15.80;77.89;99929.91;6241474;23;19938;-84
2022/07/01 05:07:59;;;;;;;;;;;;;;;15.52;78.34;99926.97;6241927;23;19907;-78
2022/07/01 05:10:24;;;;;;;;;;;;;;;15.58;78.11;99925.00;6240005;23;19990;-78
2022/07/01 05:12:50;;;;;;;;;;;;;;;15.69;77.94;99931.97;6240153;23;19986;-77
2022/07/01 05:15:15;;;;;;;;;;;;;;;15.70;78.11;99933.59;6239921;23;20235;-77
2022/07/01 05:23:07;;;;;;;;;;;;;;;15.75;77.85;99928.06;6241466;23;19950;-78
2022/07/01 05:25:33;;;;;;;;;;;;;;;15.97;77.80;99912.06;6239564;23;19939;-77
2022/07/01 05:27:58;;;;;;;;;;;;;;;15.89;77.16;99902.56;6240058;23;20204;-78
2022/07/01 05:30:23;;;;;;;;;;;;;;;16.04;77.78;99895.25;6240816;23;19943;-77
2022/07/01 05:32:48;;;;;;;;;;;;;;;15.83;77.44;99906.50;6240370;23;19965;-78
2022/07/01 05:35:16;;;;;;;;;;;;;;;15.93;77.56;99898.09;6239643;23;19919;-77
2022/07/01 05:37:41;;;;;;;;;;;;;;;15.95;77.76;99892.31;6240190;23;19911;-77
2022/07/01 05:40:07;;;;;;;;;;;;;;;16.05;77.16;99894.94;6240243;23;19931;-76
2022/07/01 05:42:32;;;;;;;;;;;;;;;16.09;76.58;99903.41;6239981;23;20342;-76
2022/07/01 05:44:57;;;;;;;;;;;;;;;15.86;77.15;99906.72;6240654;23;19911;-78
2022/07/01 05:47:23;;;;;;;;;;;;;;;15.87;77.75;99924.03;6242212;23;19922;-79
2022/07/01 05:49:48;;;;;;;;;;;;;;;15.97;76.92;99928.56;6242856;23;19923;-82
2022/07/01 05:52:13;;;;;;;;;;;;;;;15.91;76.82;99927.81;6242492;23;19916;-82
2022/07/01 05:54:38;;;;;;;;;;;;;;;15.55;78.71;99928.31;6243452;23;20180;-84
2022/07/01 05:57:04;;;;;;;;;;;;;;;15.81;77.77;99930.72;6243819;23;19942;-84
2022/07/01 05:59:29;;;;;;;;;;;;;;;15.89;77.98;99941.06;6243671;23;19911;-84
2022/07/01 06:01:54;;;;;;;;;;;;;;;15.88;77.67;99933.94;6243908;23;19930;-84
2022/07/01 06:04:19;;;;;;;;;;;;;;;15.85;77.68;99942.75;6243803;23;20312;-82
2022/07/01 06:06:45;;;;;;;;;;;;;;;16.09;77.36;99944.66;6242986;23;20274;-82
2022/07/01 06:09:10;;;;;;;;;;;;;;;15.95;77.15;99947.28;6243906;23;19907;-84
2022/07/01 06:11:35;;;;;;;;;;;;;;;16.21;76.33;99950.50;6243779;23;19908;-85
2022/07/01 06:14:00;;;;;;;;;;;;;;;15.96;77.19;99947.00;6243503;23;19908;-81
2022/07/01 06:16:25;;;;;;;;;;;;;;;16.13;76.17;99958.63;6242617;23;19908;-82
2022/07/01 06:18:50;;;;;;;;;;;;;;;16.16;75.48;99972.59;6243084;23;19990;-83
2022/07/01 06:21:16;;;;;;;;;;;;;;;15.94;76.54;99986.91;6242388;23;19907;-83
2022/07/01 06:23:42;;;;;;;;;;;;;;;15.95;76.73;99997.59;6243160;23;20262;-79
2022/07/01 06:26:07;;;;;;;;;;;;;;;16.01;76.36;99992.06;6240581;23;20212;-79
2022/07/01 06:28:32;;;;;;;;;;;;;;;16.26;75.67;99987.31;6242035;23;19939;-84
2022/07/01 06:30:58;;;;;;;;;;;;;;;16.01;76.32;99978.31;6216308;23;20021;-84
2022/07/01 06:33:23;;;;;;;;;;;;;;;16.21;76.16;99971.72;6242807;23;19911;-78
2022/07/01 06:35:48;;;;;;;;;;;;;;;16.06;75.58;99970.81;6240204;23;19919;-77
2022/07/01 06:38:13;;;;;;;;;;;;;;;16.11;76.42;99969.91;6242032;23;20327;-84
2022/07/01 06:40:38;;;;;;;;;;;;;;;16.13;75.54;99981.44;6216045;23;19922;-84
2022/07/01 06:43:04;;;;;;;;;;;;;;;16.08;76.43;99985.09;6216105;23;19982;-76
2022/07/01 06:45:29;;;;;;;;;;;;;;;16.21;75.51;99989.03;6240877;23;20419;-76
2022/07/01 06:47:54;;;;;;;;;;;;;;;16.09;76.35;99977.66;6241305;23;20314;-79
2022/07/01 06:50:19;;;;;;;;;;;;;;;16.12;75.92;99996.31;6213889;23;20324;-79
2022/07/01 06:52:45;;;;;;;;;;;;;;;16.37;75.45;99997.06;6240364;23;19908;-79
2022/07/01 06:55:10;;;;;;;;;;;;;;;16.32;74.60;99989.69;6241725;23;19908;-82
2022/07/01 06:57:35;;;;;;;;;;;;;;;16.45;75.02;99995.56;6241457;23;19943;-82
2022/07/01 07:00:00;;;;;;;;;;;;;;;16.63;74.47;99995.84;6241100;23;19908;-79
2022/07/01 07:02:25;;;;;;;;;;;;;;;16.78;73.73;100003.03;6213826;23;19930;-81
2022/07/01 07:04:56;;;;;;;;;;;;;;;16.71;72.93;100006.16;6240368;23;19907;-78
2022/07/01 07:07:22;;;;;;;;;;;;;;;16.62;73.72;99995.00;6240751;23;20151;-77
2022/07/01 07:09:47;;;;;;;;;;;;;;;16.77;73.66;99991.19;6241299;23;19911;-80
2022/07/01 07:12:12;;;;;;;;;;;;;;;16.95;72.06;99993.38;6240746;23;20236;-79
2022/07/01 07:14:37;;;;;;;;;;;;;;;16.31;73.91;100009.25;6240695;23;20379;-79
2022/07/01 07:17:03;;;;;;;;;;;;;;;16.50;74.93;100027.66;6240957;23;19918;-79
2022/07/01 07:19:28;;;;;;;;;;;;;;;16.35;74.12;100018.56;6240882;23;19947;-76
2022/07/01 07:21:53;;;;;;;;;;;;;;;16.49;74.10;100010.38;6240595;23;19915;-75
2022/07/01 07:24:18;;;;;;;;;;;;;;;16.24;74.62;100028.06;6241708;23;19912;-84
2022/07/01 07:26:44;;;;;;;;;;;;;;;16.37;74.33;100023.75;6242317;23;20304;-85
2022/07/01 07:29:09;;;;;;;;;;;;;;;16.17;74.36;100014.69;6242170;23;19984;-84
2022/07/01 07:31:34;;;;;;;;;;;;;;;16.31;74.26;100018.31;6242074;23;19938;-84
2022/07/01 07:33:59;;;;;;;;;;;;;;;16.61;73.13;100023.66;6242089;23;19914;-84
2022/07/01 07:36:24;;;;;;;;;;;;;;;16.69;72.59;100025.75;6241372;23;19912;-85
2022/07/01 07:38:50;;;;;;;;;;;;;;;17.18;71.08;100018.34;6241549;23;19918;-82
2022/07/01 07:41:15;;;;;;;;;;;;;;;17.38;70.75;100011.63;6241152;23;20319;-82
2022/07/01 07:43:40;;;;;;;;;;;;;;;17.04;70.61;100019.91;6241372;23;19935;-77
2022/07/01 07:46:05;;;;;;;;;;;;;;;16.99;71.27;100021.94;6240976;23;19915;-77
2022/07/01 07:48:30;;;;;;;;;;;;;;;16.94;72.40;100024.78;6240995;23;19986;-79
2022/07/01 07:50:56;;;;;;;;;;;;;;;17.02;71.04;100026.84;6213378;23;20096;-78
2022/07/01 07:53:21;;;;;;;;;;;;;;;17.04;71.05;100024.63;6240919;23;19907;-85
2022/07/01 07:55:46;;;;;;;;;;;;;;;17.43;69.86;100025.31;6242114;23;19943;-85
2022/07/01 07:58:11;;;;;;;;;;;;;;;17.47;70.09;100037.34;6241552;23;19907;-77
2022/07/01 08:00:36;;;;;;;;;;;;;;;17.81;68.77;100042.78;6240054;23;19936;-78
2022/07/01 08:03:02;;;;;;;;;;;;;;;17.49;68.60;100040.63;6241150;23;19907;-84
2022/07/01 08:05:27;;;;;;;;;;;;;;;17.21;68.46;100037.81;6241630;23;19970;-84
2022/07/01 08:07:52;;;;;;;;;;;;;;;17.65;67.72;100029.31;6241741;23;19907;-79
2022/07/01 08:10:18;;;;;;;;;;;;;;;17.92;67.32;100035.13;6240777;23;19907;-82
2022/07/01 08:12:43;;;;;;;;;;;;;;;17.83;66.53;100027.56;6241640;23;20384;-82
2022/07/01 08:15:08;;;;;;;;;;;;;;;17.81;66.55;100035.34;6241115;23;19911;-80
2022/07/01 08:17:34;;;;;;;;;;;;;;;17.93;65.33;100034.81;6240192;23;20243;-80
2022/07/01 08:19:59;;;;;;;;;;;;;;;17.84;65.90;100034.69;6240482;23;19981;-78
2022/07/01 08:22:24;;;;;;;;;;;;;;;17.97;66.47;100033.06;6239985;23;19911;-78
2022/07/01 08:24:49;;;;;;;;;;;;;;;18.00;66.20;100039.88;6240513;23;20151;-78
2022/07/01 08:27:14;;;;;;;;;;;;;;;17.96;66.04;100041.63;6239963;23;20270;-78
2022/07/01 08:29:40;;;;;;;;;;;;;;;17.90;65.33;100051.94;6240073;23;19995;-78
2022/07/01 08:32:06;;;;;;;;;;;;;;;17.48;66.46;100065.72;6240129;23;19918;-79
2022/07/01 08:34:31;;;;;;;;;;;;;;;17.76;65.91;100076.78;6239771;23;20382;-75
2022/07/01 08:36:56;;;;;;;;;;;;;;;17.90;65.73;100064.94;6239571;23;19907;-76
2022/07/01 08:39:21;;;;;;;;;;;;;;;18.19;64.54;100066.56;6240352;23;19907;-82
2022/07/01 08:41:47;;;;;;;;;;;;;;;17.62;66.44;100083.09;6240865;23;20309;-82
2022/07/01 08:44:12;;;;;;;;;;;;;;;17.92;65.02;100091.06;6240381;23;19929;-80
2022/07/01 08:46:37;;;;;;;;;;;;;;;17.83;65.38;100092.91;6239887;23;19922;-80
2022/07/01 08:49:02;;;;;;;;;;;;;;;17.85;65.69;100090.69;6239409;23;19912;-75
2022/07/01 08:51:28;;;;;;;;;;;;;;;18.22;64.50;100104.59;6238655;23;19971;-75
2022/07/01 08:53:53;;;;;;;;;;;;;;;18.66;63.01;100093.13;6240060;23;19977;-79
2022/07/01 08:59:02;;;;;;;;;;;;;;;19.44;60.28;100088.50;6239957;23;19930;-83
2022/07/01 09:01:28;;;;;;;;;;;;;;;19.60;58.17;100094.44;6240470;23;20002;-83
2022/07/01 09:03:54;;;;;;;;;;;;;;;19.53;58.22;100102.34;6240351;23;19935;-75
2022/07/01 09:06:25;;;;;;;;;;;;;;;19.74;58.91;100103.75;6239073;23;19953;-75
2022/07/01 09:08:50;;;;;;;;;;;;;;;19.65;59.24;100101.75;6240665;23;19915;-85
2022/07/01 09:11:17;;;;;;;;;;;;;;;19.34;58.60;100099.81;6240868;23;19907;-85
2022/07/01 09:13:43;;;;;;;;;;;;;;;19.29;59.25;100103.53;6240262;23;19908;-75
2022/07/01 09:16:15;;;;;;;;;;;;;;;19.01;59.29;100100.88;6239190;23;19911;-75
2022/07/01 09:18:58;;;;;;;;;;;;;;;19.00;59.33;100094.53;6239116;23;19961;-79
2022/07/01 09:21:27;;;;;;;;;;;;;;;18.77;60.00;100090.97;6238768;23;19916;-79
2022/07/01 09:23:52;;;;;;;;;;;;;;;19.01;59.08;100082.38;6239943;23;19907;-78
2022/07/01 09:26:21;;;;;;;;;;;;;;;19.10;59.14;100082.41;6239365;23;19918;-78
2022/07/01 09:28:52;;;;;;;;;;;;;;;19.28;59.25;100076.22;6241097;23;19914;-82
2022/07/01 09:31:17;;;;;;;;;;;;;;;19.14;58.66;100074.31;6240923;23;19915;-83
2022/07/01 09:33:43;;;;;;;;;;;;;;;19.21;57.83;100077.47;6240535;23;19915;-76
2022/07/01 09:36:14;;;;;;;;;;;;;;;19.31;58.13;100081.09;6238975;23;19911;-77
2022/07/01 09:38:45;;;;;;;;;;;;;;;18.69;59.32;100084.25;6239551;23;19911;-77
2022/07/01 09:41:11;;;;;;;;;;;;;;;18.54;60.38;100080.69;6239807;23;20267;-77
2022/07/01 09:43:37;;;;;;;;;;;;;;;18.57;60.36;100083.97;6240106;23;19982;-78
2022/07/01 09:46:11;;;;;;;;;;;;;;;18.77;60.40;100086.22;6239885;23;20004;-78
2022/07/01 09:48:36;;;;;;;;;;;;;;;19.04;59.25;100091.16;6239948;23;19912;-82
2022/07/01 09:51:03;;;;;;;;;;;;;;;18.84;58.12;100080.28;6240213;23;20029;-83
2022/07/01 09:53:28;;;;;;;;;;;;;;;18.78;57.45;100090.63;6241351;23;19917;-79
2022/07/01 09:55:53;;;;;;;;;;;;;;;18.82;57.16;100095.53;6240593;23;20301;-79
2022/07/01 09:58:19;;;;;;;;;;;;;;;18.92;57.15;100086.16;6240679;23;20245;-86
2022/07/01 10:00:44;;;;;;;;;;;;;;;19.13;56.58;100080.97;6241569;23;19968;-86
2022/07/01 10:03:10;;;;;;;;;;;;;;;19.21;56.72;100079.41;6241512;23;19961;-86
2022/07/01 10:05:45;;;;;;;;;;;;;;;18.89;58.18;100088.47;6241268;23;20278;-86
2022/07/01 10:08:29;;;;;;;;;;;;;;;19.02;58.01;100085.91;6241627;23;19907;-75
2022/07/01 10:11:06;;;;;;;;;;;;;;;19.81;57.21;100095.81;6239910;23;20282;-75
2022/07/01 10:13:33;;;;;;;;;;;;;;;19.69;55.52;100080.63;6239904;23;19978;-79
2022/07/01 10:15:59;;;;;;;;;;;;;;;19.83;55.74;100090.78;6240101;23;19908;-80
2022/07/01 10:18:25;;;;;;;;;;;;;;;19.60;55.31;100099.13;6240423;23;20316;-79
2022/07/01 10:20:51;;;;;;;;;;;;;;;19.58;55.54;100101.41;6239639;23;19908;-80
2022/07/01 10:23:18;;;;;;;;;;;;;;;20.16;54.83;100100.66;6240387;23;19907;-82
2022/07/01 10:25:45;;;;;;;;;;;;;;;20.54;54.42;100113.09;6240559;23;20335;-82
2022/07/01 10:28:11;;;;;;;;;;;;;;;20.20;55.24;100109.16;6213601;23;19961;-79
2022/07/01 10:30:47;;;;;;;;;;;;;;;20.11;54.36;100107.16;6239608;23;19907;-78
2022/07/01 10:33:25;;;;;;;;;;;;;;;19.82;54.71;100112.09;6240952;23;20002;-80
2022/07/01 10:35:51;;;;;;;;;;;;;;;20.40;54.09;100116.81;6241214;23;19990;-78
2022/07/01 10:38:16;;;;;;;;;;;;;;;20.40;53.07;100105.75;6241435;23;19949;-83
2022/07/01 10:40:45;;;;;;;;;;;;;;;20.52;53.21;100110.63;6241978;23;20216;-82
2022/07/01 10:43:10;;;;;;;;;;;;;;;20.67;52.19;100099.41;6242435;23;19918;-80
2022/07/01 10:45:45;;;;;;;;;;;;;;;21.26;51.96;100106.41;6241442;23;19911;-80
2022/07/01 10:48:17;;;;;;;;;;;;;;;20.97;51.54;100102.38;6241476;23;20463;-81
2022/07/01 10:50:45;;;;;;;;;;;;;;;20.81;51.92;100110.34;6241429;23;20196;-80
2022/07/01 10:53:10;;;;;;;;;;;;;;;20.68;51.29;100112.13;6241558;23;20320;-78
2022/07/01 10:55:36;;;;;;;;;;;;;;;19.99;52.82;100112.47;6241448;23;19954;-78
2022/07/01 10:58:01;;;;;;;;;;;;;;;20.49;53.32;100121.56;6241436;23;19908;-78
2022/07/01 11:00:31;;;;;;;;;;;;;;;20.48;52.77;100117.16;6241593;23;19907;-78
2022/07/01 11:03:04;;;;;;;;;;;;;;;20.28;52.21;100114.69;6240807;23;19914;-78
2022/07/01 11:05:30;;;;;;;;;;;;;;;20.19;53.57;100105.56;6240379;23;19911;-77
2022/07/01 11:07:55;;;;;;;;;;;;;;;20.76;52.24;100103.00;6241089;23;19911;-76
2022/07/01 11:10:21;;;;;;;;;;;;;;;21.17;50.91;100091.75;6240543;23;19918;-77
2022/07/01 11:12:49;;;;;;;;;;;;;;;21.23;48.99;100093.19;6240556;23;20242;-77
2022/07/01 11:15:14;;;;;;;;;;;;;;;21.63;46.96;100089.31;6240342;23;20291;-77
2022/07/01 11:17:47;;;;;;;;;;;;;;;22.04;45.87;100092.59;6240420;23;19911;-77
2022/07/01 11:20:12;;;;;;;;;;;;;;;22.01;44.33;100092.44;6240487;23;19914;-76
2022/07/01 11:22:37;;;;;;;;;;;;;;;21.57;44.88;100088.69;6240980;23;19912;-77
2022/07/01 11:25:07;;;;;;;;;;;;;;;21.33;45.18;100084.53;6240763;23;19994;-77
2022/07/01 11:27:34;;;;;;;;;;;;;;;21.10;46.42;100097.78;6241020;23;19945;-76
2022/07/01 11:30:00;;;;;;;;;;;;;;;21.48;44.65;100087.91;6242095;23;20367;-85
2022/07/01 11:32:30;;;;;;;;;;;;;;;22.34;43.71;100086.19;6242690;23;19958;-86
2022/07/01 11:34:56;;;;;;;;;;;;;;;22.96;43.07;100079.34;6240599;23;19912;-76
2022/07/01 11:40:06;;;;;;;;;;;;;;;22.78;42.79;100079.50;6241947;23;19937;-85
2022/07/01 11:42:31;;;;;;;;;;;;;;;22.51;43.19;100081.66;6242099;23;20274;-86
2022/07/01 11:44:56;;;;;;;;;;;;;;;22.27;43.00;100080.38;6240872;23;19930;-79
2022/07/01 11:47:23;;;;;;;;;;;;;;;22.31;43.18;100078.56;6240474;23;19907;-79
2022/07/01 11:49:48;;;;;;;;;;;;;;;22.18;43.63;100071.28;6241947;23;19986;-85
2022/07/01 11:52:14;;;;;;;;;;;;;;;22.72;41.98;100073.34;6241955;23;20314;-85
2022/07/01 11:54:40;;;;;;;;;;;;;;;22.70;41.69;100067.31;6242170;23;19907;-85
2022/07/01 11:57:10;;;;;;;;;;;;;;;23.20;40.99;100069.44;6241557;23;19934;-85
2022/07/01 11:59:38;;;;;;;;;;;;;;;23.61;39.88;100069.66;6241372;23;20355;-80
2022/07/01 12:02:03;;;;;;;;;;;;;;;23.74;39.17;100072.44;6240809;23;20295;-82
2022/07/01 12:04:29;;;;;;;;;;;;;;;24.24;37.98;100080.78;6241917;23;19908;-88
2022/07/01 12:06:54;;;;;;;;;;;;;;;23.53;37.89;100068.59;6242089;23;19912;-88
2022/07/01 12:09:20;;;;;;;;;;;;;;;23.44;38.18;100079.00;6242775;23;19993;-85
2022/07/01 12:11:46;;;;;;;;;;;;;;;23.19;39.05;100088.09;6242395;23;19919;-85
2022/07/01 12:14:11;;;;;;;;;;;;;;;22.84;40.54;100088.47;6241377;23;19907;-77
2022/07/01 12:16:40;;;;;;;;;;;;;;;22.93;41.10;100086.41;6240335;23;20263;-77
2022/07/01 12:19:05;;;;;;;;;;;;;;;23.62;40.03;100090.75;6241054;23;19977;-80
2022/07/01 12:21:31;;;;;;;;;;;;;;;23.98;38.85;100088.31;6241113;23;20312;-80
2022/07/01 12:24:03;;;;;;;;;;;;;;;23.70;40.04;100086.22;6242229;23;19920;-85
2022/07/01 12:26:28;;;;;;;;;;;;;;;24.04;39.70;100080.56;6215788;23;19912;-85
2022/07/01 12:28:54;;;;;;;;;;;;;;;24.34;38.79;100083.09;6242687;23;19920;-79